sensor_id;sensor_type;location;lat;lon;timestamp;temperature;humidity
62862;DHT22;48953;53.110;5.592;2022-08-07T00:00:40;10.10;98.90
62862;DHT22;48953;53.110;5.592;2022-08-07T00:03:07;10.10;99.90
62862;DHT22;48953;53.110;5.592;2022-08-07T00:05:33;10.10;99.90
62862;DHT22;48953;53.110;5.592;2022-08-07T00:07:59;10.20;99.90
62862;DHT22;48953;53.110;5.592;2022-08-07T00:10:24;10.10;99.90
62862;DHT22;48953;53.110;5.592;2022-08-07T00:12:50;10.10;99.20
62862;DHT22;48953;53.110;5.592;2022-08-07T00:15:15;10.20;72.30
62862;DHT22;48953;53.110;5.592;2022-08-07T00:17:41;10.30;25.30
62862;DHT22;48953;53.110;5.592;2022-08-07T00:20:07;10.40;90.60
62862;DHT22;48953;53.110;5.592;2022-08-07T00:22:33;10.40;75.90
62862;DHT22;48953;53.110;5.592;2022-08-07T00:24:58;10.40;1.00
62862;DHT22;48953;53.110;5.592;2022-08-07T00:27:24;10.40;1.00
62862;DHT22;48953;53.110;5.592;2022-08-07T00:29:49;10.60;42.40
62862;DHT22;48953;53.110;5.592;2022-08-07T00:32:15;10.60;32.30
62862;DHT22;48953;53.110;5.592;2022-08-07T00:34:41;10.60;1.00
62862;DHT22;48953;53.110;5.592;2022-08-07T00:37:07;10.60;1.00
62862;DHT22;48953;53.110;5.592;2022-08-07T00:39:34;10.60;18.20
62862;DHT22;48953;53.110;5.592;2022-08-07T00:42:00;10.50;54.30
62862;DHT22;48953;53.110;5.592;2022-08-07T00:44:26;10.40;1.00
62862;DHT22;48953;53.110;5.592;2022-08-07T00:46:52;10.40;32.80
62862;DHT22;48953;53.110;5.592;2022-08-07T00:49:17;10.40;78.60
62862;DHT22;48953;53.110;5.592;2022-08-07T00:51:43;10.10;1.00
62862;DHT22;48953;53.110;5.592;2022-08-07T00:54:10;10.20;18.50
62862;DHT22;48953;53.110;5.592;2022-08-07T00:56:36;10.10;1.00
62862;DHT22;48953;53.110;5.592;2022-08-07T00:59:03;10.10;1.00
62862;DHT22;48953;53.110;5.592;2022-08-07T01:01:30;10.20;34.70
62862;DHT22;48953;53.110;5.592;2022-08-07T01:03:55;10.30;99.50
62862;DHT22;48953;53.110;5.592;2022-08-07T01:06:21;10.30;99.90
62862;DHT22;48953;53.110;5.592;2022-08-07T01:08:47;10.10;90.00
62862;DHT22;48953;53.110;5.592;2022-08-07T01:11:13;10.10;58.10
62862;DHT22;48953;53.110;5.592;2022-08-07T01:13:40;10.10;63.50
62862;DHT22;48953;53.110;5.592;2022-08-07T01:16:07;10.10;75.30
62862;DHT22;48953;53.110;5.592;2022-08-07T01:18:33;10.20;84.80
62862;DHT22;48953;53.110;5.592;2022-08-07T01:21:16;10.10;18.90
62862;DHT22;48953;53.110;5.592;2022-08-07T01:23:44;10.20;1.00
62862;DHT22;48953;53.110;5.592;2022-08-07T01:26:12;10.10;1.00
62862;DHT22;48953;53.110;5.592;2022-08-07T01:28:43;10.30;33.60
62862;DHT22;48953;53.110;5.592;2022-08-07T01:31:09;10.20;1.00
62862;DHT22;48953;53.110;5.592;2022-08-07T01:33:35;10.30;1.00
62862;DHT22;48953;53.110;5.592;2022-08-07T01:36:02;10.30;1.00
62862;DHT22;48953;53.110;5.592;2022-08-07T01:38:28;10.40;1.00
62862;DHT22;48953;53.110;5.592;2022-08-07T01:40:58;10.40;1.00
62862;DHT22;48953;53.110;5.592;2022-08-07T01:43:25;10.60;97.50
62862;DHT22;48953;53.110;5.592;2022-08-07T01:45:52;10.40;1.00
62862;DHT22;48953;53.110;5.592;2022-08-07T01:48:18;10.40;73.90
62862;DHT22;48953;53.110;5.592;2022-08-07T01:51:03;10.40;99.90
62862;DHT22;48953;53.110;5.592;2022-08-07T01:53:32;10.40;99.90
62862;DHT22;48953;53.110;5.592;2022-08-07T01:56:02;10.40;99.90
62862;DHT22;48953;53.110;5.592;2022-08-07T01:58:33;10.30;99.90
62862;DHT22;48953;53.110;5.592;2022-08-07T02:01:03;10.40;99.90
62862;DHT22;48953;53.110;5.592;2022-08-07T02:03:29;10.40;99.90
62862;DHT22;48953;53.110;5.592;2022-08-07T02:06:04;10.40;99.90
62862;DHT22;48953;53.110;5.592;2022-08-07T02:08:33;10.30;99.90
62862;DHT22;48953;53.110;5.592;2022-08-07T02:11:02;10.10;99.90
62862;DHT22;48953;53.110;5.592;2022-08-07T02:13:31;10.30;99.90
62862;DHT22;48953;53.110;5.592;2022-08-07T02:15:59;10.30;99.90
62862;DHT22;48953;53.110;5.592;2022-08-07T02:18:27;10.30;99.90
62862;DHT22;48953;53.110;5.592;2022-08-07T02:20:55;10.40;99.90
62862;DHT22;48953;53.110;5.592;2022-08-07T02:23:22;10.20;99.90
62862;DHT22;48953;53.110;5.592;2022-08-07T02:25:49;10.20;99.90
62862;DHT22;48953;53.110;5.592;2022-08-07T02:28:16;10.10;99.90
62862;DHT22;48953;53.110;5.592;2022-08-07T02:30:43;10.10;99.90
62862;DHT22;48953;53.110;5.592;2022-08-07T02:33:10;10.00;99.90
62862;DHT22;48953;53.110;5.592;2022-08-07T02:35:38;9.90;99.90
62862;DHT22;48953;53.110;5.592;2022-08-07T02:38:06;10.10;99.90
62862;DHT22;48953;53.110;5.592;2022-08-07T02:40:33;10.00;99.90
62862;DHT22;48953;53.110;5.592;2022-08-07T02:42:59;10.10;99.90
62862;DHT22;48953;53.110;5.592;2022-08-07T02:45:27;10.10;99.90
62862;DHT22;48953;53.110;5.592;2022-08-07T02:47:54;10.10;99.90
62862;DHT22;48953;53.110;5.592;2022-08-07T02:50:20;10.00;99.90
62862;DHT22;48953;53.110;5.592;2022-08-07T02:52:53;10.00;99.90
62862;DHT22;48953;53.110;5.592;2022-08-07T02:55:25;10.00;99.90
62862;DHT22;48953;53.110;5.592;2022-08-07T02:57:52;9.90;99.90
62862;DHT22;48953;53.110;5.592;2022-08-07T03:00:19;10.00;99.90
62862;DHT22;48953;53.110;5.592;2022-08-07T03:02:46;10.00;99.90
62862;DHT22;48953;53.110;5.592;2022-08-07T03:05:13;10.10;99.90
62862;DHT22;48953;53.110;5.592;2022-08-07T03:07:40;10.10;99.90
62862;DHT22;48953;53.110;5.592;2022-08-07T03:10:08;10.00;99.90
62862;DHT22;48953;53.110;5.592;2022-08-07T03:12:34;9.90;99.90
62862;DHT22;48953;53.110;5.592;2022-08-07T03:15:01;10.00;99.90
62862;DHT22;48953;53.110;5.592;2022-08-07T03:17:28;10.00;99.90
62862;DHT22;48953;53.110;5.592;2022-08-07T03:19:54;10.00;99.90
62862;DHT22;48953;53.110;5.592;2022-08-07T03:22:21;10.00;99.90
62862;DHT22;48953;53.110;5.592;2022-08-07T03:24:48;10.10;99.90
62862;DHT22;48953;53.110;5.592;2022-08-07T03:27:14;10.10;99.90
62862;DHT22;48953;53.110;5.592;2022-08-07T03:29:46;10.00;99.90
62862;DHT22;48953;53.110;5.592;2022-08-07T03:32:13;10.10;99.90
62862;DHT22;48953;53.110;5.592;2022-08-07T03:34:42;10.20;99.90
62862;DHT22;48953;53.110;5.592;2022-08-07T03:37:09;10.10;99.90
62862;DHT22;48953;53.110;5.592;2022-08-07T03:39:35;10.00;99.90
62862;DHT22;48953;53.110;5.592;2022-08-07T03:42:03;10.00;99.90
62862;DHT22;48953;53.110;5.592;2022-08-07T03:44:33;10.00;99.90
62862;DHT22;48953;53.110;5.592;2022-08-07T03:47:01;9.80;99.90
62862;DHT22;48953;53.110;5.592;2022-08-07T03:49:27;9.90;99.90
62862;DHT22;48953;53.110;5.592;2022-08-07T03:51:54;9.80;99.90
62862;DHT22;48953;53.110;5.592;2022-08-07T03:54:20;9.80;99.90
62862;DHT22;48953;53.110;5.592;2022-08-07T03:56:45;10.10;99.90
62862;DHT22;48953;53.110;5.592;2022-08-07T03:59:12;10.30;99.90
62862;DHT22;48953;53.110;5.592;2022-08-07T04:01:41;10.20;99.90
62862;DHT22;48953;53.110;5.592;2022-08-07T04:04:07;10.10;99.90
62862;DHT22;48953;53.110;5.592;2022-08-07T04:06:33;10.10;99.90
62862;DHT22;48953;53.110;5.592;2022-08-07T04:09:00;9.80;99.90
62862;DHT22;48953;53.110;5.592;2022-08-07T04:11:26;10.00;99.90
62862;DHT22;48953;53.110;5.592;2022-08-07T04:13:53;9.90;99.90
62862;DHT22;48953;53.110;5.592;2022-08-07T04:16:19;9.90;99.90
62862;DHT22;48953;53.110;5.592;2022-08-07T04:18:45;9.90;99.90
62862;DHT22;48953;53.110;5.592;2022-08-07T04:21:11;10.00;99.90
62862;DHT22;48953;53.110;5.592;2022-08-07T04:23:37;9.90;99.90
62862;DHT22;48953;53.110;5.592;2022-08-07T04:26:05;10.00;99.90
62862;DHT22;48953;53.110;5.592;2022-08-07T04:28:31;10.00;99.90
62862;DHT22;48953;53.110;5.592;2022-08-07T04:30:57;10.10;99.90
62862;DHT22;48953;53.110;5.592;2022-08-07T04:33:23;10.10;99.90
62862;DHT22;48953;53.110;5.592;2022-08-07T04:35:49;10.20;99.90
62862;DHT22;48953;53.110;5.592;2022-08-07T04:38:15;10.20;99.90
62862;DHT22;48953;53.110;5.592;2022-08-07T04:40:42;10.30;99.90
62862;DHT22;48953;53.110;5.592;2022-08-07T04:43:08;10.30;93.70
62862;DHT22;48953;53.110;5.592;2022-08-07T04:51:46;10.60;54.80
62862;DHT22;48953;53.110;5.592;2022-08-07T04:59:33;10.80;1.00
62862;DHT22;48953;53.110;5.592;2022-08-07T05:02:06;10.80;1.00
62862;DHT22;48953;53.110;5.592;2022-08-07T05:09:52;11.30;99.90
62862;DHT22;48953;53.110;5.592;2022-08-07T05:12:22;11.40;1.00
62862;DHT22;48953;53.110;5.592;2022-08-07T05:14:51;11.60;1.00
62862;DHT22;48953;53.110;5.592;2022-08-07T05:17:19;11.60;1.00
62862;DHT22;48953;53.110;5.592;2022-08-07T05:19:50;11.80;1.00
62862;DHT22;48953;53.110;5.592;2022-08-07T05:22:19;12.70;1.00
62862;DHT22;48953;53.110;5.592;2022-08-07T05:24:47;16.60;99.90
62862;DHT22;48953;53.110;5.592;2022-08-07T05:27:17;19.50;99.90
62862;DHT22;48953;53.110;5.592;2022-08-07T05:29:45;21.60;99.90
62862;DHT22;48953;53.110;5.592;2022-08-07T05:32:12;22.90;99.90
62862;DHT22;48953;53.110;5.592;2022-08-07T05:34:40;24.20;99.90
62862;DHT22;48953;53.110;5.592;2022-08-07T05:37:07;25.30;99.90
62862;DHT22;48953;53.110;5.592;2022-08-07T05:39:34;26.20;99.90
62862;DHT22;48953;53.110;5.592;2022-08-07T05:42:02;26.80;99.90
62862;DHT22;48953;53.110;5.592;2022-08-07T05:44:29;27.70;99.90
62862;DHT22;48953;53.110;5.592;2022-08-07T05:46:58;28.70;99.90
62862;DHT22;48953;53.110;5.592;2022-08-07T05:49:25;29.50;99.90
62862;DHT22;48953;53.110;5.592;2022-08-07T05:51:51;29.90;99.90
62862;DHT22;48953;53.110;5.592;2022-08-07T05:54:17;30.20;99.90
62862;DHT22;48953;53.110;5.592;2022-08-07T05:56:43;30.60;99.90
62862;DHT22;48953;53.110;5.592;2022-08-07T05:59:15;30.90;99.90
62862;DHT22;48953;53.110;5.592;2022-08-07T06:01:41;31.90;99.90
62862;DHT22;48953;53.110;5.592;2022-08-07T06:04:09;32.70;99.90
62862;DHT22;48953;53.110;5.592;2022-08-07T06:06:35;32.80;99.90
62862;DHT22;48953;53.110;5.592;2022-08-07T06:09:01;33.60;99.90
62862;DHT22;48953;53.110;5.592;2022-08-07T06:11:27;34.00;99.90
62862;DHT22;48953;53.110;5.592;2022-08-07T06:13:53;34.50;99.90
62862;DHT22;48953;53.110;5.592;2022-08-07T06:16:20;34.90;99.90
62862;DHT22;48953;53.110;5.592;2022-08-07T06:18:47;35.20;99.50
62862;DHT22;48953;53.110;5.592;2022-08-07T06:21:13;34.80;98.10
62862;DHT22;48953;53.110;5.592;2022-08-07T06:23:39;35.70;96.70
62862;DHT22;48953;53.110;5.592;2022-08-07T06:26:05;35.70;95.00
62862;DHT22;48953;53.110;5.592;2022-08-07T06:28:31;36.20;93.10
62862;DHT22;48953;53.110;5.592;2022-08-07T06:30:57;36.80;91.70
62862;DHT22;48953;53.110;5.592;2022-08-07T06:33:23;36.70;90.20
62862;DHT22;48953;53.110;5.592;2022-08-07T06:35:49;37.10;87.30
62862;DHT22;48953;53.110;5.592;2022-08-07T06:38:15;37.00;84.80
62862;DHT22;48953;53.110;5.592;2022-08-07T06:40:45;36.80;82.50
62862;DHT22;48953;53.110;5.592;2022-08-07T06:43:12;38.10;80.70
62862;DHT22;48953;53.110;5.592;2022-08-07T06:45:40;38.50;76.70
62862;DHT22;48953;53.110;5.592;2022-08-07T06:48:05;38.60;72.40
62862;DHT22;48953;53.110;5.592;2022-08-07T06:50:33;38.90;71.40
62862;DHT22;48953;53.110;5.592;2022-08-07T06:53:02;39.90;68.60
62862;DHT22;48953;53.110;5.592;2022-08-07T06:55:29;40.30;64.80
62862;DHT22;48953;53.110;5.592;2022-08-07T06:58:00;39.80;60.30
62862;DHT22;48953;53.110;5.592;2022-08-07T07:00:31;40.00;60.00
62862;DHT22;48953;53.110;5.592;2022-08-07T07:02:58;40.90;57.20
62862;DHT22;48953;53.110;5.592;2022-08-07T07:05:24;40.30;54.70
62862;DHT22;48953;53.110;5.592;2022-08-07T07:07:49;40.50;52.40
62862;DHT22;48953;53.110;5.592;2022-08-07T07:10:23;41.60;50.60
62862;DHT22;48953;53.110;5.592;2022-08-07T07:12:52;41.70;48.60
62862;DHT22;48953;53.110;5.592;2022-08-07T07:15:24;42.00;46.10
62862;DHT22;48953;53.110;5.592;2022-08-07T07:18:13;42.30;43.50
62862;DHT22;48953;53.110;5.592;2022-08-07T07:20:44;42.30;41.20
62862;DHT22;48953;53.110;5.592;2022-08-07T07:23:12;41.50;39.60
62862;DHT22;48953;53.110;5.592;2022-08-07T07:25:38;41.60;39.30
62862;DHT22;48953;53.110;5.592;2022-08-07T07:28:19;42.70;37.80
62862;DHT22;48953;53.110;5.592;2022-08-07T07:30:52;43.10;36.00
62862;DHT22;48953;53.110;5.592;2022-08-07T07:33:21;43.10;34.40
62862;DHT22;48953;53.110;5.592;2022-08-07T07:35:49;42.30;32.40
62862;DHT22;48953;53.110;5.592;2022-08-07T07:38:18;42.60;31.20
62862;DHT22;48953;53.110;5.592;2022-08-07T07:40:47;43.00;30.50
62862;DHT22;48953;53.110;5.592;2022-08-07T07:43:15;43.70;28.80
62862;DHT22;48953;53.110;5.592;2022-08-07T07:45:41;44.40;27.60
62862;DHT22;48953;53.110;5.592;2022-08-07T07:48:10;44.60;26.70
62862;DHT22;48953;53.110;5.592;2022-08-07T07:50:38;43.30;25.10
62862;DHT22;48953;53.110;5.592;2022-08-07T07:53:06;44.00;24.30
62862;DHT22;48953;53.110;5.592;2022-08-07T07:55:32;44.30;23.80
62862;DHT22;48953;53.110;5.592;2022-08-07T07:57:58;42.20;20.90
62862;DHT22;48953;53.110;5.592;2022-08-07T08:00:25;41.90;20.90
62862;DHT22;48953;53.110;5.592;2022-08-07T08:02:56;44.00;22.40
62862;DHT22;48953;53.110;5.592;2022-08-07T08:05:22;44.50;21.00
62862;DHT22;48953;53.110;5.592;2022-08-07T08:07:48;46.00;19.30
62862;DHT22;48953;53.110;5.592;2022-08-07T08:10:15;46.20;18.30
62862;DHT22;48953;53.110;5.592;2022-08-07T08:12:44;46.20;16.60
62862;DHT22;48953;53.110;5.592;2022-08-07T08:15:11;46.30;16.50
62862;DHT22;48953;53.110;5.592;2022-08-07T08:17:37;46.80;14.30
62862;DHT22;48953;53.110;5.592;2022-08-07T08:20:08;43.20;12.60
62862;DHT22;48953;53.110;5.592;2022-08-07T08:22:38;37.80;14.20
62862;DHT22;48953;53.110;5.592;2022-08-07T08:25:25;37.20;17.30
62862;DHT22;48953;53.110;5.592;2022-08-07T08:28:14;41.40;16.90
62862;DHT22;48953;53.110;5.592;2022-08-07T08:30:42;42.80;15.20
62862;DHT22;48953;53.110;5.592;2022-08-07T08:33:11;43.10;15.80
62862;DHT22;48953;53.110;5.592;2022-08-07T08:35:42;43.40;15.00
62862;DHT22;48953;53.110;5.592;2022-08-07T08:38:11;40.50;13.90
62862;DHT22;48953;53.110;5.592;2022-08-07T08:40:40;43.00;15.50
62862;DHT22;48953;53.110;5.592;2022-08-07T08:43:16;44.10;14.80
62862;DHT22;48953;53.110;5.592;2022-08-07T08:46:00;43.70;12.40
62862;DHT22;48953;53.110;5.592;2022-08-07T08:48:39;44.60;12.60
62862;DHT22;48953;53.110;5.592;2022-08-07T08:51:15;44.90;11.90
62862;DHT22;48953;53.110;5.592;2022-08-07T08:53:58;43.20;11.20
62862;DHT22;48953;53.110;5.592;2022-08-07T08:56:27;43.80;11.50
62862;DHT22;48953;53.110;5.592;2022-08-07T09:01:48;40.40;12.30
62862;DHT22;48953;53.110;5.592;2022-08-07T09:04:44;38.00;11.80
62862;DHT22;48953;53.110;5.592;2022-08-07T09:10:18;40.60;15.10
62862;DHT22;48953;53.110;5.592;2022-08-07T09:13:08;42.00;14.40
62862;DHT22;48953;53.110;5.592;2022-08-07T09:16:00;42.70;13.50
62862;DHT22;48953;53.110;5.592;2022-08-07T09:21:26;43.20;13.30
62862;DHT22;48953;53.110;5.592;2022-08-07T09:24:17;43.90;13.10
62862;DHT22;48953;53.110;5.592;2022-08-07T09:32:46;44.00;11.20
62862;DHT22;48953;53.110;5.592;2022-08-07T09:35:33;42.80;11.50
62862;DHT22;48953;53.110;5.592;2022-08-07T09:38:24;42.10;10.00
62862;DHT22;48953;53.110;5.592;2022-08-07T09:49:12;39.70;13.10
62862;DHT22;48953;53.110;5.592;2022-08-07T09:51:49;39.90;11.90
62862;DHT22;48953;53.110;5.592;2022-08-07T09:54:23;40.30;12.70
62862;DHT22;48953;53.110;5.592;2022-08-07T10:00:17;37.20;12.90
62862;DHT22;48953;53.110;5.592;2022-08-07T10:05:28;39.90;12.90
62862;DHT22;48953;53.110;5.592;2022-08-07T10:15:53;41.70;10.30
62862;DHT22;48953;53.110;5.592;2022-08-07T10:18:40;42.20;9.20
62862;DHT22;48953;53.110;5.592;2022-08-07T10:40:55;40.90;8.90
62862;DHT22;48953;53.110;5.592;2022-08-07T10:43:32;40.70;8.50
62862;DHT22;48953;53.110;5.592;2022-08-07T10:46:12;41.10;9.20
62862;DHT22;48953;53.110;5.592;2022-08-07T10:53:46;39.00;9.40
62862;DHT22;48953;53.110;5.592;2022-08-07T10:59:11;37.00;9.30
62862;DHT22;48953;53.110;5.592;2022-08-07T11:01:57;36.10;11.10
62862;DHT22;48953;53.110;5.592;2022-08-07T11:07:24;32.90;12.50
62862;DHT22;48953;53.110;5.592;2022-08-07T11:09:58;29.90;12.30
62862;DHT22;48953;53.110;5.592;2022-08-07T11:15:24;29.90;14.90
62862;DHT22;48953;53.110;5.592;2022-08-07T11:20:50;29.80;16.80
62862;DHT22;48953;53.110;5.592;2022-08-07T11:23:25;29.30;17.60
62862;DHT22;48953;53.110;5.592;2022-08-07T11:26:52;29.00;18.50
62862;DHT22;48953;53.110;5.592;2022-08-07T11:29:08;28.50;18.80
62862;DHT22;48953;53.110;5.592;2022-08-07T11:32:03;27.90;19.10
62862;DHT22;48953;53.110;5.592;2022-08-07T11:34:40;28.00;20.40
62862;DHT22;48953;53.110;5.592;2022-08-07T11:40:19;28.40;21.20
62862;DHT22;48953;53.110;5.592;2022-08-07T11:42:55;27.70;21.80
62862;DHT22;48953;53.110;5.592;2022-08-07T11:45:33;27.40;23.10
62862;DHT22;48953;53.110;5.592;2022-08-07T12:00:00;27.30;26.80
62862;DHT22;48953;53.110;5.592;2022-08-07T12:08:29;27.10;29.40
62862;DHT22;48953;53.110;5.592;2022-08-07T12:10:58;26.40;29.70
62862;DHT22;48953;53.110;5.592;2022-08-07T12:13:33;26.50;32.10
62862;DHT22;48953;53.110;5.592;2022-08-07T12:16:04;26.60;33.10
62862;DHT22;48953;53.110;5.592;2022-08-07T12:24:52;26.70;36.40
62862;DHT22;48953;53.110;5.592;2022-08-07T12:27:45;26.20;37.90
62862;DHT22;48953;53.110;5.592;2022-08-07T12:30:12;26.40;39.60
62862;DHT22;48953;53.110;5.592;2022-08-07T12:33:00;26.50;41.00
62862;DHT22;48953;53.110;5.592;2022-08-07T12:35:28;27.20;42.50
62862;DHT22;48953;53.110;5.592;2022-08-07T12:37:55;27.40;43.50
62862;DHT22;48953;53.110;5.592;2022-08-07T12:40:25;27.90;44.40
62862;DHT22;48953;53.110;5.592;2022-08-07T12:42:52;28.00;44.10
62862;DHT22;48953;53.110;5.592;2022-08-07T12:45:21;27.60;44.40
62862;DHT22;48953;53.110;5.592;2022-08-07T12:48:03;27.60;46.00
62862;DHT22;48953;53.110;5.592;2022-08-07T12:53:14;27.30;44.90
62862;DHT22;48953;53.110;5.592;2022-08-07T12:58:27;25.80;45.40
62862;DHT22;48953;53.110;5.592;2022-08-07T13:01:07;25.70;46.30
62862;DHT22;48953;53.110;5.592;2022-08-07T13:09:19;25.90;50.50
62862;DHT22;48953;53.110;5.592;2022-08-07T13:11:56;26.30;51.30
62862;DHT22;48953;53.110;5.592;2022-08-07T13:17:20;25.40;53.10
62862;DHT22;48953;53.110;5.592;2022-08-07T13:19:53;24.80;55.10
62862;DHT22;48953;53.110;5.592;2022-08-07T13:22:35;24.40;56.80
62862;DHT22;48953;53.110;5.592;2022-08-07T13:25:09;25.00;60.10
62862;DHT22;48953;53.110;5.592;2022-08-07T13:27:47;25.60;61.80
62862;DHT22;48953;53.110;5.592;2022-08-07T13:30:14;25.60;63.40
62862;DHT22;48953;53.110;5.592;2022-08-07T13:32:55;25.50;65.20
62862;DHT22;48953;53.110;5.592;2022-08-07T13:35:30;25.10;65.30
62862;DHT22;48953;53.110;5.592;2022-08-07T13:38:16;25.40;67.90
62862;DHT22;48953;53.110;5.592;2022-08-07T13:41:23;25.50;69.90
62862;DHT22;48953;53.110;5.592;2022-08-07T13:43:53;26.40;72.50
62862;DHT22;48953;53.110;5.592;2022-08-07T13:46:20;26.80;71.70
62862;DHT22;48953;53.110;5.592;2022-08-07T13:48:52;26.50;71.70
62862;DHT22;48953;53.110;5.592;2022-08-07T13:51:20;26.10;72.50
62862;DHT22;48953;53.110;5.592;2022-08-07T13:53:57;26.30;73.70
62862;DHT22;48953;53.110;5.592;2022-08-07T13:56:24;26.80;76.50
62862;DHT22;48953;53.110;5.592;2022-08-07T13:58:52;26.50;75.00
62862;DHT22;48953;53.110;5.592;2022-08-07T14:01:29;26.30;74.80
62862;DHT22;48953;53.110;5.592;2022-08-07T14:03:57;26.30;76.20
62862;DHT22;48953;53.110;5.592;2022-08-07T14:06:31;26.20;76.90
62862;DHT22;48953;53.110;5.592;2022-08-07T14:08:57;25.60;77.10
62862;DHT22;48953;53.110;5.592;2022-08-07T14:11:27;25.70;78.90
62862;DHT22;48953;53.110;5.592;2022-08-07T14:14:04;26.30;80.10
62862;DHT22;48953;53.110;5.592;2022-08-07T14:16:39;25.90;79.60
62862;DHT22;48953;53.110;5.592;2022-08-07T14:19:13;25.80;79.30
62862;DHT22;48953;53.110;5.592;2022-08-07T14:21:41;26.30;80.70
62862;DHT22;48953;53.110;5.592;2022-08-07T14:24:34;26.20;81.80
62862;DHT22;48953;53.110;5.592;2022-08-07T14:27:07;25.90;81.10
62862;DHT22;48953;53.110;5.592;2022-08-07T14:29:38;26.00;82.90
62862;DHT22;48953;53.110;5.592;2022-08-07T14:32:07;26.30;83.50
62862;DHT22;48953;53.110;5.592;2022-08-07T14:34:36;25.50;82.30
62862;DHT22;48953;53.110;5.592;2022-08-07T14:37:07;25.40;83.10
62862;DHT22;48953;53.110;5.592;2022-08-07T14:39:37;25.40;84.30
62862;DHT22;48953;53.110;5.592;2022-08-07T14:42:05;25.50;85.50
62862;DHT22;48953;53.110;5.592;2022-08-07T14:44:32;25.10;86.90
62862;DHT22;48953;53.110;5.592;2022-08-07T14:47:00;25.00;88.70
62862;DHT22;48953;53.110;5.592;2022-08-07T14:49:31;24.90;90.00
62862;DHT22;48953;53.110;5.592;2022-08-07T14:51:59;24.90;90.50
62862;DHT22;48953;53.110;5.592;2022-08-07T14:54:31;24.60;91.10
62862;DHT22;48953;53.110;5.592;2022-08-07T14:56:59;24.20;92.20
62862;DHT22;48953;53.110;5.592;2022-08-07T14:59:25;24.00;93.70
62862;DHT22;48953;53.110;5.592;2022-08-07T15:01:54;24.20;94.90
62862;DHT22;48953;53.110;5.592;2022-08-07T15:04:21;23.90;96.10
62862;DHT22;48953;53.110;5.592;2022-08-07T15:06:48;23.60;97.20
62862;DHT22;48953;53.110;5.592;2022-08-07T15:09:15;23.70;98.50
62862;DHT22;48953;53.110;5.592;2022-08-07T15:11:50;23.70;99.70
62862;DHT22;48953;53.110;5.592;2022-08-07T15:14:22;23.30;99.90
62862;DHT22;48953;53.110;5.592;2022-08-07T15:17:03;23.20;99.90
62862;DHT22;48953;53.110;5.592;2022-08-07T15:19:37;23.60;99.90
62862;DHT22;48953;53.110;5.592;2022-08-07T15:22:04;23.70;99.90
62862;DHT22;48953;53.110;5.592;2022-08-07T15:24:39;23.70;99.90
62862;DHT22;48953;53.110;5.592;2022-08-07T15:27:06;23.70;99.90
62862;DHT22;48953;53.110;5.592;2022-08-07T15:29:37;23.60;99.90
62862;DHT22;48953;53.110;5.592;2022-08-07T15:32:06;23.60;99.90
62862;DHT22;48953;53.110;5.592;2022-08-07T15:34:45;23.70;99.90
62862;DHT22;48953;53.110;5.592;2022-08-07T15:37:14;23.70;99.90
62862;DHT22;48953;53.110;5.592;2022-08-07T15:39:46;23.60;99.90
62862;DHT22;48953;53.110;5.592;2022-08-07T15:42:35;23.40;99.90
62862;DHT22;48953;53.110;5.592;2022-08-07T15:45:02;23.00;99.90
62862;DHT22;48953;53.110;5.592;2022-08-07T15:47:31;22.70;99.90
62862;DHT22;48953;53.110;5.592;2022-08-07T15:49:59;22.70;99.90
62862;DHT22;48953;53.110;5.592;2022-08-07T15:52:28;22.30;99.90
62862;DHT22;48953;53.110;5.592;2022-08-07T15:54:55;22.00;99.90
62862;DHT22;48953;53.110;5.592;2022-08-07T15:57:26;21.80;99.90
62862;DHT22;48953;53.110;5.592;2022-08-07T15:59:54;21.60;99.90
62862;DHT22;48953;53.110;5.592;2022-08-07T16:02:33;21.30;99.90
62862;DHT22;48953;53.110;5.592;2022-08-07T16:05:07;21.30;99.90
62862;DHT22;48953;53.110;5.592;2022-08-07T16:07:41;21.40;99.90
62862;DHT22;48953;53.110;5.592;2022-08-07T16:10:12;21.40;99.90
62862;DHT22;48953;53.110;5.592;2022-08-07T16:13:07;21.80;99.90
62862;DHT22;48953;53.110;5.592;2022-08-07T16:15:42;22.00;99.90
62862;DHT22;48953;53.110;5.592;2022-08-07T16:21:02;22.00;99.90
62862;DHT22;48953;53.110;5.592;2022-08-07T16:23:58;22.00;99.90
62862;DHT22;48953;53.110;5.592;2022-08-07T16:32:00;21.70;99.90
62862;DHT22;48953;53.110;5.592;2022-08-07T16:40:27;21.90;99.90
62862;DHT22;48953;53.110;5.592;2022-08-07T16:46:09;21.70;99.90
62862;DHT22;48953;53.110;5.592;2022-08-07T16:51:54;22.00;99.90
62862;DHT22;48953;53.110;5.592;2022-08-07T16:57:28;21.50;99.90
62862;DHT22;48953;53.110;5.592;2022-08-07T17:02:54;21.20;99.90
62862;DHT22;48953;53.110;5.592;2022-08-07T17:08:02;21.00;99.90
62862;DHT22;48953;53.110;5.592;2022-08-07T17:15:51;20.70;99.90
62862;DHT22;48953;53.110;5.592;2022-08-07T17:18:29;20.70;99.90
62862;DHT22;48953;53.110;5.592;2022-08-07T17:20:59;20.60;99.90
62862;DHT22;48953;53.110;5.592;2022-08-07T17:26:42;20.40;99.90
62862;DHT22;48953;53.110;5.592;2022-08-07T17:29:16;20.30;99.90
62862;DHT22;48953;53.110;5.592;2022-08-07T17:31:48;20.20;99.90
62862;DHT22;48953;53.110;5.592;2022-08-07T17:34:21;20.20;99.90
62862;DHT22;48953;53.110;5.592;2022-08-07T17:36:56;20.10;99.90
62862;DHT22;48953;53.110;5.592;2022-08-07T17:39:54;19.90;99.90
62862;DHT22;48953;53.110;5.592;2022-08-07T17:43:01;19.90;99.90
62862;DHT22;48953;53.110;5.592;2022-08-07T17:45:42;19.80;99.90
62862;DHT22;48953;53.110;5.592;2022-08-07T17:48:14;19.70;99.90
62862;DHT22;48953;53.110;5.592;2022-08-07T17:56:35;19.40;99.90
62862;DHT22;48953;53.110;5.592;2022-08-07T17:59:03;19.40;99.90
62862;DHT22;48953;53.110;5.592;2022-08-07T18:01:54;19.20;99.90
62862;DHT22;48953;53.110;5.592;2022-08-07T18:04:33;19.10;99.90
62862;DHT22;48953;53.110;5.592;2022-08-07T18:09:33;18.90;99.90
62862;DHT22;48953;53.110;5.592;2022-08-07T18:12:22;18.90;99.90
62862;DHT22;48953;53.110;5.592;2022-08-07T18:17:50;18.70;99.90
62862;DHT22;48953;53.110;5.592;2022-08-07T18:20:46;18.60;99.90
62862;DHT22;48953;53.110;5.592;2022-08-07T18:23:23;18.50;99.90
62862;DHT22;48953;53.110;5.592;2022-08-07T18:25:58;18.30;99.90
62862;DHT22;48953;53.110;5.592;2022-08-07T18:28:38;18.20;99.90
62862;DHT22;48953;53.110;5.592;2022-08-07T18:31:17;17.90;99.90
62862;DHT22;48953;53.110;5.592;2022-08-07T18:37:34;18.00;99.90
62862;DHT22;48953;53.110;5.592;2022-08-07T18:43:33;17.80;99.90
62862;DHT22;48953;53.110;5.592;2022-08-07T18:46:03;17.70;99.90
62862;DHT22;48953;53.110;5.592;2022-08-07T18:51:33;17.50;99.90
62862;DHT22;48953;53.110;5.592;2022-08-07T18:54:18;17.50;99.90
62862;DHT22;48953;53.110;5.592;2022-08-07T18:56:49;17.30;99.90
62862;DHT22;48953;53.110;5.592;2022-08-07T19:02:31;17.00;99.90
62862;DHT22;48953;53.110;5.592;2022-08-07T19:10:35;16.70;99.90
62862;DHT22;48953;53.110;5.592;2022-08-07T19:13:25;16.50;99.90
62862;DHT22;48953;53.110;5.592;2022-08-07T19:16:07;16.30;99.90